createdAt,value
2019-03-13T00:01:49.381Z,83.66
2019-03-13T00:03:55.875Z,83.54
2019-03-13T00:06:03.304Z,83.20
2019-03-13T00:08:09.533Z,83.09
2019-03-13T00:10:16.344Z,82.72
2019-03-13T00:12:22.858Z,82.67
2019-03-13T00:14:32.747Z,82.40
2019-03-13T00:16:41.661Z,82.34
2019-03-13T00:18:51.623Z,82.19
2019-03-13T00:20:58.071Z,82.12
2019-03-13T00:23:04.835Z,82.00
2019-03-13T00:25:11.273Z,81.70
2019-03-13T00:27:17.439Z,81.59
2019-03-13T00:29:23.596Z,81.25
2019-03-13T00:31:30.602Z,81.30
2019-03-13T00:33:37.131Z,81.31
2019-03-13T00:35:43.403Z,81.01
2019-03-13T00:37:49.653Z,80.84
2019-03-13T00:39:55.819Z,80.82
2019-03-13T00:42:01.955Z,80.68
2019-03-13T00:44:08.135Z,80.23
2019-03-13T00:46:14.273Z,80.37
2019-03-13T00:48:20.326Z,80.22
2019-03-13T00:50:30.339Z,80.01
2019-03-13T00:52:36.533Z,80.01
2019-03-13T00:54:42.713Z,79.84
2019-03-13T00:56:48.962Z,79.52
2019-03-13T00:58:55.118Z,79.35
2019-03-13T01:01:15.103Z,79.08
2019-03-13T01:03:32.933Z,79.03
2019-03-13T01:05:43.598Z,78.84
2019-03-13T01:07:49.864Z,78.80
2019-03-13T01:09:56.113Z,78.65
2019-03-13T01:12:02.275Z,78.64
2019-03-13T01:14:08.436Z,78.29
2019-03-13T01:16:14.576Z,78.22
2019-03-13T01:18:21.057Z,78.12
2019-03-13T01:20:27.225Z,77.92
2019-03-13T01:22:33.481Z,77.98
2019-03-13T01:24:39.828Z,78.04
2019-03-13T01:26:48.463Z,78.01
2019-03-13T01:28:56.404Z,77.92
2019-03-13T01:31:19.527Z,77.70
2019-03-13T01:33:25.902Z,77.62
2019-03-13T01:35:40.054Z,77.31
2019-03-13T01:37:46.493Z,77.29
2019-03-13T01:39:53.103Z,77.30
2019-03-13T01:41:59.321Z,77.24
2019-03-13T01:44:06.604Z,77.15
2019-03-13T01:46:12.852Z,77.16
2019-03-13T01:48:19.112Z,77.19
2019-03-13T01:50:25.270Z,77.12
2019-03-13T01:52:32.352Z,76.92
2019-03-13T01:54:38.715Z,76.81
2019-03-13T01:56:44.972Z,76.72
2019-03-13T01:58:51.133Z,76.51
2019-03-13T02:00:57.296Z,76.50
2019-03-13T02:03:05.289Z,76.38
2019-03-13T02:05:11.450Z,76.26
2019-03-13T02:07:17.805Z,76.27
2019-03-13T02:09:23.969Z,76.41
2019-03-13T02:11:30.420Z,76.35
2019-03-13T02:13:36.591Z,76.39
2019-03-13T02:15:43.062Z,76.22
2019-03-13T02:17:49.210Z,76.14
2019-03-13T02:19:55.558Z,76.42
2019-03-13T02:22:01.644Z,76.21
2019-03-13T02:24:08.002Z,76.29
2019-03-13T02:26:14.145Z,76.09
2019-03-13T02:28:20.412Z,76.11
2019-03-13T02:30:28.213Z,75.90
2019-03-13T02:32:34.361Z,75.65
2019-03-13T02:34:40.526Z,75.24
2019-03-13T02:36:47.024Z,75.27
2019-03-13T02:38:53.540Z,75.23
2019-03-13T02:40:59.719Z,74.79
2019-03-13T02:43:06.057Z,74.80
2019-03-13T02:45:16.527Z,74.64
2019-03-13T02:47:22.691Z,74.35
2019-03-13T02:49:28.948Z,74.21
2019-03-13T02:51:35.161Z,74.34
2019-03-13T02:53:41.364Z,74.29
2019-03-13T02:55:47.530Z,74.28
2019-03-13T02:57:53.803Z,74.17
2019-03-13T02:59:59.945Z,74.30
2019-03-13T03:02:07.665Z,74.14
2019-03-13T03:04:14.788Z,73.90
2019-03-13T03:06:20.973Z,73.87
2019-03-13T03:08:27.036Z,74.07
2019-03-13T03:10:33.178Z,73.60
2019-03-13T03:12:39.348Z,73.85
2019-03-13T03:15:04.609Z,73.58
2019-03-13T03:17:10.815Z,73.62
2019-03-13T03:19:17.888Z,73.70
2019-03-13T03:21:25.065Z,73.57
2019-03-13T03:23:34.384Z,73.55
2019-03-13T03:25:40.447Z,73.62
2019-03-13T03:27:46.932Z,73.58
2019-03-13T03:29:53.073Z,73.39
2019-03-13T03:31:59.229Z,73.49
2019-03-13T03:34:06.160Z,73.55
2019-03-13T03:36:12.386Z,73.53
2019-03-13T03:38:18.647Z,73.39
2019-03-13T03:40:25.429Z,73.54
2019-03-13T03:42:31.991Z,73.46
2019-03-13T03:44:38.251Z,73.17
2019-03-13T03:46:48.642Z,73.45
2019-03-13T03:48:55.583Z,73.26
2019-03-13T03:51:02.756Z,73.29
2019-03-13T03:53:13.381Z,72.97
2019-03-13T03:55:19.468Z,73.29
2019-03-13T03:57:25.939Z,72.99
2019-03-13T03:59:32.208Z,73.20
2019-03-13T04:01:39.687Z,73.17
2019-03-13T04:03:46.349Z,72.95
2019-03-13T04:05:52.503Z,72.95
2019-03-13T04:07:58.538Z,72.59
2019-03-13T04:10:13.338Z,72.71
2019-03-13T04:12:21.794Z,72.93
2019-03-13T04:14:28.614Z,72.81
2019-03-13T04:16:36.315Z,72.91
2019-03-13T04:18:42.573Z,72.78
2019-03-13T04:20:49.079Z,72.91
2019-03-13T04:22:57.286Z,72.98
2019-03-13T04:25:21.631Z,73.05
2019-03-13T04:27:27.879Z,72.79
2019-03-13T04:29:34.033Z,72.71
2019-03-13T04:31:40.291Z,72.90
2019-03-13T04:33:46.455Z,72.62
2019-03-13T04:35:52.813Z,72.66
2019-03-13T04:37:58.977Z,72.93
2019-03-13T04:40:08.274Z,72.90
2019-03-13T04:42:14.658Z,72.91
2019-03-13T04:44:24.012Z,72.90
2019-03-13T04:46:33.580Z,72.72
2019-03-13T04:48:41.070Z,72.06
2019-03-13T04:50:52.424Z,72.12
2019-03-13T04:52:59.420Z,71.81
2019-03-13T04:55:08.884Z,71.47
2019-03-13T04:57:15.497Z,71.73
2019-03-13T04:59:21.743Z,72.18
2019-03-13T05:01:27.905Z,71.88
2019-03-13T05:03:33.931Z,71.87
2019-03-13T05:07:17.151Z,71.57
2019-03-13T05:08:45.419Z,71.49
2019-03-13T05:10:51.912Z,71.30
2019-03-13T05:12:58.146Z,71.08
2019-03-13T05:15:06.332Z,71.16
2019-03-13T05:17:13.957Z,70.55
2019-03-13T05:19:24.757Z,70.85
2019-03-13T05:21:32.654Z,70.43
2019-03-13T05:23:39.682Z,70.23
2019-03-13T05:25:50.310Z,70.66
2019-03-13T05:27:59.874Z,69.70
2019-03-13T05:30:09.834Z,69.29
2019-03-13T05:32:17.722Z,69.08
2019-03-13T05:34:24.030Z,69.30
2019-03-13T05:36:30.231Z,69.07
2019-03-13T05:38:36.441Z,69.00
2019-03-13T05:40:42.811Z,68.28
2019-03-13T05:42:48.864Z,68.00
2019-03-13T05:44:55.022Z,68.40
2019-03-13T05:47:01.182Z,68.23
2019-03-13T05:49:07.241Z,67.30
2019-03-13T05:51:13.388Z,67.55
2019-03-13T05:53:19.575Z,66.77
2019-03-13T05:55:26.844Z,66.98
2019-03-13T05:57:32.995Z,66.74
2019-03-13T05:59:39.157Z,66.59
2019-03-13T06:01:45.417Z,67.30
2019-03-13T06:03:51.578Z,66.45
2019-03-13T06:05:57.842Z,67.19
2019-03-13T06:08:03.987Z,67.32
2019-03-13T06:10:15.512Z,66.33
2019-03-13T06:12:21.841Z,66.08
2019-03-13T06:14:29.005Z,66.58
2019-03-13T06:16:35.176Z,66.47
2019-03-13T06:18:47.349Z,66.37
2019-03-13T06:21:21.809Z,66.77
2019-03-13T06:23:28.132Z,65.49
2019-03-13T06:25:35.849Z,65.52
2019-03-13T06:27:42.115Z,64.79
2019-03-13T06:29:48.268Z,64.96
2019-03-13T06:31:54.415Z,65.29
2019-03-13T06:34:00.685Z,65.73
2019-03-13T06:36:06.867Z,64.67
2019-03-13T06:38:12.844Z,64.41
2019-03-13T06:40:21.463Z,65.49
2019-03-13T06:42:27.557Z,65.00
2019-03-13T06:44:34.113Z,65.09
2019-03-13T06:46:40.316Z,64.31
2019-03-13T06:48:46.458Z,64.34
2019-03-13T06:50:52.705Z,64.24
2019-03-13T06:52:58.865Z,63.94
2019-03-13T06:55:05.846Z,64.38
2019-03-13T06:57:12.228Z,63.96
2019-03-13T06:59:20.114Z,64.16
2019-03-13T07:01:39.903Z,63.76
2019-03-13T07:03:47.779Z,64.01
2019-03-13T07:06:08.634Z,63.28
2019-03-13T07:08:29.390Z,64.53
2019-03-13T07:10:41.081Z,65.07
2019-03-13T07:12:48.874Z,66.16
2019-03-13T07:15:02.296Z,67.49
2019-03-13T07:17:10.213Z,68.97
2019-03-13T07:19:21.074Z,70.66
2019-03-13T07:21:46.890Z,72.05
2019-03-13T07:23:55.700Z,73.43
2019-03-13T07:26:09.757Z,74.27
2019-03-13T07:28:23.799Z,74.94
2019-03-13T07:30:31.781Z,75.50
2019-03-13T07:32:43.672Z,76.31
2019-03-13T07:35:01.422Z,77.00
2019-03-13T07:37:07.262Z,77.84
2019-03-13T07:39:16.283Z,78.53
2019-03-13T07:41:42.419Z,78.94
2019-03-13T07:44:06.593Z,79.65
2019-03-13T07:46:30.465Z,80.41
2019-03-13T07:48:54.542Z,80.86
2019-03-13T07:51:18.974Z,81.28
2019-03-13T07:53:41.684Z,81.77
2019-03-13T07:55:58.047Z,82.61
2019-03-13T07:58:21.135Z,83.08
2019-03-13T08:00:32.877Z,83.36
2019-03-13T08:02:55.667Z,83.95
2019-03-13T08:05:03.841Z,84.44
2019-03-13T08:07:12.998Z,84.98
2019-03-13T08:09:21.820Z,84.96
2019-03-13T08:11:44.265Z,85.08
2019-03-13T08:14:08.226Z,85.26
2019-03-13T08:16:32.016Z,85.13
2019-03-13T08:18:42.536Z,85.54
2019-03-13T08:20:54.159Z,85.36
2019-03-13T08:23:22.940Z,85.88
2019-03-13T08:25:30.828Z,86.15
2019-03-13T08:27:44.112Z,86.34
2019-03-13T08:29:53.513Z,86.37
2019-03-13T08:32:06.937Z,86.56
2019-03-13T08:34:27.033Z,86.68
2019-03-13T08:36:47.021Z,86.53
2019-03-13T08:39:10.970Z,86.71
2019-03-13T08:41:18.770Z,86.19
2019-03-13T08:43:38.335Z,86.26
2019-03-13T08:45:52.992Z,86.46
2019-03-13T08:47:58.855Z,86.23
2019-03-13T08:50:15.858Z,86.07
2019-03-13T08:52:23.787Z,86.00
2019-03-13T08:54:42.134Z,86.27
2019-03-13T08:57:07.614Z,86.24
2019-03-13T08:59:31.380Z,86.60
2019-03-13T09:01:39.040Z,87.01
2019-03-13T09:03:55.731Z,87.05
2019-03-13T09:06:04.383Z,87.10
2019-03-13T09:08:14.938Z,87.23
2019-03-13T09:10:39.013Z,87.13
2019-03-13T09:12:50.935Z,87.31
2019-03-13T09:15:02.430Z,86.80
2019-03-13T09:17:10.877Z,87.05
2019-03-13T09:19:23.243Z,86.68
2019-03-13T09:21:47.728Z,86.89
2019-03-13T09:24:07.543Z,86.74
2019-03-13T09:26:18.072Z,86.86
2019-03-13T09:28:28.617Z,86.97
2019-03-13T09:30:52.689Z,86.65
2019-03-13T09:33:00.397Z,86.70
2019-03-13T09:35:28.465Z,87.10
2019-03-13T09:37:37.492Z,86.77
2019-03-13T09:39:46.205Z,86.90
2019-03-13T09:41:54.107Z,86.82
2019-03-13T09:44:00.263Z,86.88
2019-03-13T09:46:16.978Z,86.85
2019-03-13T09:48:24.762Z,86.39
2019-03-13T09:50:33.479Z,86.39
2019-03-13T09:52:57.651Z,86.22
2019-03-13T09:55:05.656Z,85.57
2019-03-13T09:57:25.519Z,85.55
2019-03-13T09:59:42.809Z,84.06
2019-03-13T10:01:53.051Z,82.95
2019-03-13T10:04:03.976Z,82.65
2019-03-13T10:06:27.018Z,82.17
2019-03-13T10:08:37.682Z,81.36
2019-03-13T10:10:45.497Z,80.51
2019-03-13T10:13:02.033Z,79.78
2019-03-13T10:15:26.691Z,79.94
2019-03-13T10:17:49.534Z,79.83
2019-03-13T10:20:03.081Z,79.12
2019-03-13T10:22:11.049Z,77.94
2019-03-13T10:24:20.936Z,78.29
2019-03-13T10:26:31.661Z,77.81
2019-03-13T10:28:55.757Z,77.87
2019-03-13T10:31:12.665Z,78.37
2019-03-13T10:33:26.599Z,78.84
2019-03-13T10:35:41.250Z,79.06
2019-03-13T10:38:13.322Z,78.19
2019-03-13T10:40:16.816Z,78.52
2019-03-13T10:42:33.613Z,78.57
2019-03-13T10:44:41.623Z,79.08
2019-03-13T10:46:49.411Z,78.28
2019-03-13T10:49:13.560Z,77.78
2019-03-13T10:51:36.854Z,77.54
2019-03-13T10:53:56.651Z,78.34
2019-03-13T10:56:07.428Z,77.83
2019-03-13T10:58:21.546Z,77.40
2019-03-13T11:00:33.238Z,75.60
2019-03-13T11:02:56.406Z,74.04
2019-03-13T11:05:04.800Z,73.68
2019-03-13T11:07:29.199Z,71.65
2019-03-13T11:09:42.814Z,71.28
2019-03-13T11:11:56.958Z,71.02
2019-03-13T11:14:15.032Z,69.97
2019-03-13T11:16:14.998Z,70.81
2019-03-13T11:18:23.029Z,69.48
2019-03-13T11:20:51.685Z,68.86
2019-03-13T11:23:07.668Z,65.28
2019-03-13T11:25:15.314Z,64.19
2019-03-13T11:27:28.830Z,64.13
2019-03-13T11:29:40.909Z,63.64
2019-03-13T11:31:54.848Z,63.18
2019-03-13T11:34:16.160Z,62.24
2019-03-13T11:36:26.689Z,61.41
2019-03-13T11:38:37.181Z,61.12
2019-03-13T11:40:44.967Z,61.23
2019-03-13T11:42:52.681Z,61.38
2019-03-13T11:45:00.973Z,61.27
2019-03-13T11:47:06.916Z,61.10
2019-03-13T11:49:18.515Z,61.41
2019-03-13T11:51:38.309Z,61.93
2019-03-13T11:53:46.104Z,60.74
2019-03-13T11:55:56.652Z,61.55
2019-03-13T11:58:18.265Z,62.09
2019-03-13T12:00:58.315Z,61.96
2019-03-13T12:03:09.820Z,62.49
2019-03-13T12:05:21.395Z,59.63
2019-03-13T12:07:39.314Z,58.10
2019-03-13T12:09:50.732Z,57.56
2019-03-13T12:12:07.714Z,56.60
2019-03-13T12:14:16.150Z,54.64
2019-03-13T12:16:30.275Z,54.73
2019-03-13T12:18:37.912Z,54.27
2019-03-13T12:20:48.837Z,54.40
2019-03-13T12:22:59.600Z,52.16
2019-03-13T12:25:16.951Z,51.84
2019-03-13T12:27:41.023Z,51.18
2019-03-13T12:30:05.069Z,52.11
2019-03-13T12:32:28.953Z,52.58
2019-03-13T12:34:52.001Z,52.85
2019-03-13T12:37:05.635Z,51.21
2019-03-13T12:39:13.432Z,51.74
2019-03-13T12:41:19.385Z,52.49
2019-03-13T12:43:27.297Z,51.41
2019-03-13T12:45:44.534Z,51.03
2019-03-13T12:48:16.647Z,51.76
2019-03-13T12:50:27.129Z,51.58
2019-03-13T12:52:45.270Z,52.18
2019-03-13T12:55:05.348Z,51.36
2019-03-13T12:57:18.893Z,49.95
2019-03-13T12:59:26.879Z,49.63
2019-03-13T13:01:35.917Z,48.98
2019-03-13T13:04:00.089Z,48.92
2019-03-13T13:06:06.125Z,49.17
2019-03-13T13:08:25.915Z,49.41
2019-03-13T13:10:39.961Z,49.56
2019-03-13T13:12:45.927Z,49.98
2019-03-13T13:15:02.728Z,50.24
2019-03-13T13:17:22.507Z,51.75
2019-03-13T13:19:28.651Z,49.95
2019-03-13T13:21:34.843Z,50.56
2019-03-13T13:23:41.182Z,51.27
2019-03-13T13:25:47.838Z,52.01
2019-03-13T13:27:53.998Z,50.99
2019-03-13T13:30:00.534Z,51.07
2019-03-13T13:32:06.934Z,50.88
2019-03-13T13:34:13.398Z,51.09
2019-03-13T13:36:19.577Z,51.11
2019-03-13T13:38:25.832Z,51.62
2019-03-13T13:40:32.086Z,51.05
2019-03-13T13:42:38.567Z,50.83
2019-03-13T13:44:44.825Z,51.94
2019-03-13T13:46:51.283Z,51.41
2019-03-13T13:48:57.539Z,51.40
2019-03-13T13:51:03.789Z,50.78
2019-03-13T13:53:10.053Z,51.18
2019-03-13T13:55:17.439Z,51.12
2019-03-13T13:57:24.926Z,50.46
2019-03-13T13:59:31.088Z,49.04
2019-03-13T14:01:37.236Z,49.68
2019-03-13T14:03:43.404Z,49.07
2019-03-13T14:05:49.756Z,48.65
2019-03-13T14:07:56.020Z,48.68
2019-03-13T14:10:02.172Z,47.45
2019-03-13T14:12:08.438Z,47.76
2019-03-13T14:14:15.007Z,48.52
2019-03-13T14:16:21.374Z,49.41
2019-03-13T14:18:27.731Z,49.28
2019-03-13T14:20:34.211Z,48.17
2019-03-13T14:22:40.438Z,47.76
2019-03-13T14:24:47.636Z,48.98
2019-03-13T14:26:53.778Z,48.92
2019-03-13T14:28:59.959Z,49.56
2019-03-13T14:31:06.500Z,49.03
2019-03-13T14:33:12.893Z,49.50
2019-03-13T14:35:19.081Z,47.54
2019-03-13T14:37:25.414Z,48.25
2019-03-13T14:39:31.862Z,47.19
2019-03-13T14:41:38.336Z,48.16
2019-03-13T14:43:44.485Z,48.09
2019-03-13T14:45:50.656Z,48.22
2019-03-13T14:47:57.018Z,48.82
2019-03-13T14:50:03.277Z,48.95
2019-03-13T14:52:09.455Z,49.96
2019-03-13T14:54:15.700Z,50.07
2019-03-13T14:56:22.176Z,49.94
2019-03-13T14:58:28.630Z,50.37
2019-03-13T15:00:34.875Z,50.75
2019-03-13T15:02:41.157Z,50.45
2019-03-13T15:04:47.401Z,49.77
2019-03-13T15:06:53.552Z,50.10
2019-03-13T15:09:00.135Z,51.21
2019-03-13T15:11:06.798Z,50.19
2019-03-13T15:13:13.057Z,49.95
2019-03-13T15:15:22.096Z,49.95
2019-03-13T15:17:28.497Z,50.93
2019-03-13T15:19:36.567Z,50.74
2019-03-13T15:21:44.637Z,49.57
2019-03-13T15:23:51.119Z,49.87
2019-03-13T15:25:57.512Z,49.03
2019-03-13T15:28:04.926Z,48.92
2019-03-13T15:30:27.611Z,49.24
2019-03-13T15:32:33.976Z,49.24
2019-03-13T15:34:41.621Z,48.99
2019-03-13T15:36:48.049Z,48.26
2019-03-13T15:38:55.842Z,49.46
2019-03-13T15:41:03.228Z,49.74
2019-03-13T15:43:09.822Z,50.28
2019-03-13T15:45:20.212Z,49.97
2019-03-13T15:47:26.596Z,49.89
2019-03-13T15:49:35.542Z,50.07
2019-03-13T15:51:43.414Z,50.68
2019-03-13T15:53:49.832Z,50.91
2019-03-13T15:55:57.817Z,51.38
2019-03-13T15:58:05.687Z,51.33
2019-03-13T16:00:23.158Z,51.67
2019-03-13T16:02:31.516Z,52.19
2019-03-13T16:04:37.984Z,52.68
2019-03-13T16:06:44.612Z,53.23
2019-03-13T16:08:51.030Z,53.39
2019-03-13T16:10:57.469Z,53.98
2019-03-13T16:13:05.427Z,54.29
2019-03-13T16:15:22.472Z,54.75
2019-03-13T16:17:45.291Z,55.30
2019-03-13T16:19:56.375Z,55.43
2019-03-13T16:22:03.928Z,55.66
2019-03-13T16:24:10.172Z,55.87
2019-03-13T16:26:16.669Z,56.33
2019-03-13T16:28:24.021Z,56.27
2019-03-13T16:30:35.740Z,56.38
2019-03-13T16:32:44.162Z,56.57
2019-03-13T16:34:51.825Z,57.02
2019-03-13T16:36:59.621Z,58.07
2019-03-13T16:39:08.993Z,58.40
2019-03-13T16:41:16.004Z,58.94
2019-03-13T16:43:22.557Z,59.07
2019-03-13T16:45:29.128Z,59.23
2019-03-13T16:47:35.535Z,59.66
2019-03-13T16:49:42.206Z,59.60
2019-03-13T16:51:49.792Z,59.72
2019-03-13T16:53:56.235Z,59.75
2019-03-13T16:56:06.333Z,59.83
2019-03-13T16:58:13.012Z,60.39
2019-03-13T17:00:34.175Z,60.28
2019-03-13T17:02:40.604Z,60.29
2019-03-13T17:04:47.180Z,60.14
2019-03-13T17:06:53.773Z,60.06
2019-03-13T17:09:00.178Z,60.17
2019-03-13T17:11:10.167Z,60.14
2019-03-13T17:13:16.768Z,60.22
2019-03-13T17:15:24.494Z,59.36
2019-03-13T17:17:32.432Z,59.66
2019-03-13T17:19:39.428Z,59.60
2019-03-13T17:21:45.992Z,59.41
2019-03-13T17:23:54.405Z,59.33
2019-03-13T17:26:00.767Z,58.72
2019-03-13T17:28:09.806Z,58.42
2019-03-13T17:30:25.760Z,58.80
2019-03-13T17:32:33.745Z,58.58
2019-03-13T17:34:48.835Z,57.96
2019-03-13T17:37:05.857Z,58.31
2019-03-13T17:39:19.316Z,58.60
2019-03-13T17:41:32.357Z,57.58
2019-03-13T17:43:45.701Z,57.57
2019-03-13T17:46:00.291Z,57.64
2019-03-13T17:48:14.361Z,57.10
2019-03-13T17:50:24.720Z,57.62
2019-03-13T17:52:31.356Z,58.00
2019-03-13T17:54:37.676Z,57.58
2019-03-13T17:56:46.295Z,58.44
2019-03-13T17:58:56.604Z,57.17
2019-03-13T18:01:03.426Z,57.85
2019-03-13T18:03:10.038Z,57.23
2019-03-13T18:05:17.798Z,57.03
2019-03-13T18:07:24.285Z,57.31
2019-03-13T18:09:31.197Z,57.42
2019-03-13T18:11:39.264Z,57.24
2019-03-13T18:13:47.281Z,56.99
2019-03-13T18:15:55.278Z,57.46
2019-03-13T18:18:01.968Z,57.15
2019-03-13T18:20:13.954Z,57.23
2019-03-13T18:22:20.707Z,57.12
2019-03-13T18:24:29.230Z,57.28
2019-03-13T18:26:35.928Z,56.93
2019-03-13T18:28:43.338Z,57.23
2019-03-13T18:30:50.073Z,57.71
2019-03-13T18:32:57.438Z,57.93
2019-03-13T18:35:07.257Z,57.60
2019-03-13T18:37:15.160Z,58.43
2019-03-13T18:39:23.082Z,58.00
2019-03-13T18:41:33.344Z,58.29
2019-03-13T18:43:40.796Z,58.19
2019-03-13T18:45:48.402Z,58.72
2019-03-13T18:47:55.474Z,58.15
2019-03-13T18:50:02.285Z,58.18
2019-03-13T18:52:09.956Z,57.79
2019-03-13T18:54:18.194Z,58.09
2019-03-13T18:56:24.836Z,57.84
2019-03-13T18:58:34.832Z,57.43
2019-03-13T19:00:41.721Z,57.60
2019-03-13T19:02:50.003Z,57.34
2019-03-13T19:04:58.847Z,57.84
2019-03-13T19:07:11.513Z,57.32
2019-03-13T19:09:18.247Z,57.77
2019-03-13T19:11:25.032Z,57.21
2019-03-13T19:13:35.987Z,57.45
2019-03-13T19:15:42.979Z,57.59
2019-03-13T19:17:49.524Z,57.16
2019-03-13T19:19:56.837Z,57.58
2019-03-13T19:22:04.342Z,57.51
2019-03-13T19:24:11.039Z,57.53
2019-03-13T19:26:17.867Z,57.04
2019-03-13T19:28:26.059Z,57.52
2019-03-13T19:30:37.937Z,57.08
2019-03-13T19:32:46.874Z,57.31
2019-03-13T19:34:56.330Z,57.15
2019-03-13T19:37:04.488Z,57.16
2019-03-13T19:39:12.475Z,57.33
2019-03-13T19:41:19.346Z,57.40
2019-03-13T19:43:25.934Z,57.15
2019-03-13T19:45:40.375Z,56.72
2019-03-13T19:47:48.853Z,56.74
2019-03-13T19:49:57.570Z,56.49
2019-03-13T19:52:04.257Z,56.47
2019-03-13T19:54:13.917Z,56.84
2019-03-13T19:56:25.812Z,57.02
2019-03-13T19:58:32.665Z,57.10
2019-03-13T20:00:40.824Z,57.37
2019-03-13T20:02:59.366Z,57.44
2019-03-13T20:05:00.975Z,57.34
2019-03-13T20:07:12.757Z,57.39
2019-03-13T20:09:24.972Z,57.41
2019-03-13T20:11:33.438Z,57.79
2019-03-13T20:13:43.206Z,57.80
2019-03-13T20:15:55.145Z,57.59
2019-03-13T20:18:03.074Z,57.57
2019-03-13T20:20:14.998Z,57.96
2019-03-13T20:22:22.848Z,57.71
2019-03-13T20:24:29.495Z,58.19
2019-03-13T20:26:36.014Z,57.86
2019-03-13T20:28:46.407Z,57.87
2019-03-13T20:30:54.595Z,58.18
2019-03-13T20:33:04.955Z,58.09
2019-03-13T20:35:17.584Z,58.04
2019-03-13T20:37:27.063Z,58.43
2019-03-13T20:39:33.783Z,58.15
2019-03-13T20:41:43.206Z,58.43
2019-03-13T20:43:50.013Z,58.15
2019-03-13T20:45:56.939Z,58.20
2019-03-13T20:48:03.784Z,58.16
2019-03-13T20:50:15.403Z,58.65
2019-03-13T20:52:23.785Z,59.31
2019-03-13T20:54:31.655Z,59.26
2019-03-13T20:56:41.574Z,59.34
2019-03-13T20:58:48.435Z,59.43
2019-03-13T21:00:55.419Z,59.45
2019-03-13T21:03:04.900Z,59.77
2019-03-13T21:05:13.527Z,60.13
2019-03-13T21:07:22.957Z,60.00
2019-03-13T21:09:42.299Z,60.32
2019-03-13T21:11:48.978Z,60.78
2019-03-13T21:13:55.600Z,60.91
2019-03-13T21:16:02.421Z,60.80
2019-03-13T21:18:11.100Z,60.50
2019-03-13T21:20:19.880Z,61.00
2019-03-13T21:22:26.451Z,60.91
2019-03-13T21:24:36.840Z,61.18
2019-03-13T21:26:43.977Z,61.30
2019-03-13T21:28:51.879Z,60.71
2019-03-13T21:30:59.810Z,60.33
2019-03-13T21:33:08.040Z,60.35
2019-03-13T21:35:15.000Z,60.66
2019-03-13T21:37:24.350Z,60.44
2019-03-13T21:39:32.530Z,60.73
2019-03-13T21:41:40.540Z,61.31
2019-03-13T21:43:51.132Z,60.82
2019-03-13T21:45:59.628Z,60.42
2019-03-13T21:48:06.270Z,60.41
2019-03-13T21:50:15.320Z,60.21
2019-03-13T21:52:21.885Z,60.30
2019-03-13T21:54:28.439Z,60.27
2019-03-13T21:56:35.104Z,60.17
2019-03-13T21:58:42.838Z,60.29
2019-03-13T22:00:49.232Z,60.52
2019-03-13T22:03:27.973Z,60.77
2019-03-13T22:05:27.543Z,60.49
2019-03-13T22:07:34.099Z,60.33
2019-03-13T22:09:41.305Z,60.58
2019-03-13T22:11:47.586Z,59.98
2019-03-13T22:13:53.936Z,60.24
2019-03-13T22:16:00.188Z,60.32
2019-03-13T22:18:06.566Z,60.25
2019-03-13T22:20:15.545Z,60.03
2019-03-13T22:22:21.763Z,60.08
2019-03-13T22:24:27.996Z,59.57
2019-03-13T22:26:34.155Z,59.84
2019-03-13T22:28:42.658Z,59.62
2019-03-13T22:30:49.533Z,59.44
2019-03-13T22:32:55.906Z,59.56
2019-03-13T22:35:02.164Z,59.42
2019-03-13T22:37:08.461Z,59.20
2019-03-13T22:39:14.985Z,58.94
2019-03-13T22:41:21.270Z,59.17
2019-03-13T22:43:27.513Z,59.34
2019-03-13T22:45:33.671Z,59.41
2019-03-13T22:47:43.038Z,59.59
2019-03-13T22:49:47.820Z,60.11
2019-03-13T22:51:53.974Z,59.81
2019-03-13T22:54:00.170Z,60.28
2019-03-13T22:56:06.418Z,59.66
2019-03-13T22:58:12.682Z,59.61
2019-03-13T23:00:30.598Z,60.04
2019-03-13T23:02:38.713Z,59.97
2019-03-13T23:04:45.874Z,60.30
2019-03-13T23:06:52.148Z,60.25
2019-03-13T23:08:58.810Z,60.14
2019-03-13T23:11:05.488Z,60.18
2019-03-13T23:13:11.755Z,59.76
2019-03-13T23:15:18.003Z,59.96
2019-03-13T23:17:24.985Z,59.90
2019-03-13T23:19:32.271Z,59.86
2019-03-13T23:21:38.648Z,59.76
2019-03-13T23:23:44.886Z,60.03
2019-03-13T23:25:51.241Z,59.62
2019-03-13T23:27:57.597Z,59.51
2019-03-13T23:30:05.287Z,60.05
2019-03-13T23:32:11.679Z,59.65
2019-03-13T23:34:19.370Z,59.45
2019-03-13T23:36:25.616Z,59.55
2019-03-13T23:38:31.983Z,59.23
2019-03-13T23:40:38.140Z,59.85
2019-03-13T23:42:44.411Z,59.94
2019-03-13T23:44:50.561Z,59.64
2019-03-13T23:46:56.715Z,59.57
2019-03-13T23:49:03.489Z,59.43
2019-03-13T23:51:09.656Z,59.70
2019-03-13T23:53:15.905Z,59.73
2019-03-13T23:55:22.494Z,59.87
2019-03-13T23:57:28.840Z,60.05
2019-03-13T23:59:35.293Z,59.36
